sensor_id;sensor_type;location;lat;lon;timestamp;pressure;altitude;pressure_sealevel;temperature;humidity
36630;BME280;36256;42.154;23.002;2023-04-01T00:00:59;96360.94;;;12.24;78.05
36630;BME280;36256;42.154;23.002;2023-04-01T00:03:26;96375.78;;;12.24;77.57
36630;BME280;36256;42.154;23.002;2023-04-01T00:05:54;96371.97;;;12.27;75.20
36630;BME280;36256;42.154;23.002;2023-04-01T00:08:22;96370.16;;;12.24;77.00
36630;BME280;36256;42.154;23.002;2023-04-01T00:10:49;96364.81;;;12.26;74.96
36630;BME280;36256;42.154;23.002;2023-04-01T00:13:16;96365.19;;;12.19;77.23
36630;BME280;36256;42.154;23.002;2023-04-01T00:15:43;96362.88;;;12.18;77.46
36630;BME280;36256;42.154;23.002;2023-04-01T00:18:11;96366.47;;;12.18;77.72
36630;BME280;36256;42.154;23.002;2023-04-01T00:20:38;96363.44;;;12.22;75.16
36630;BME280;36256;42.154;23.002;2023-04-01T00:23:04;96361.59;;;12.19;78.38
36630;BME280;36256;42.154;23.002;2023-04-01T00:25:31;96347.06;;;12.20;74.40
36630;BME280;36256;42.154;23.002;2023-04-01T00:27:58;96342.69;;;12.19;73.25
36630;BME280;36256;42.154;23.002;2023-04-01T00:30:25;96347.34;;;12.22;74.30
36630;BME280;36256;42.154;23.002;2023-04-01T00:32:52;96350.84;;;12.17;79.91
36630;BME280;36256;42.154;23.002;2023-04-01T00:35:20;96359.00;;;12.15;81.79
36630;BME280;36256;42.154;23.002;2023-04-01T00:37:46;96362.19;;;12.23;85.61
36630;BME280;36256;42.154;23.002;2023-04-01T00:40:30;96362.50;;;12.25;80.10
36630;BME280;36256;42.154;23.002;2023-04-01T00:42:57;96353.34;;;12.30;75.88
36630;BME280;36256;42.154;23.002;2023-04-01T00:47:54;96338.22;;;12.27;83.03
36630;BME280;36256;42.154;23.002;2023-04-01T00:50:21;96337.53;;;12.32;82.80
36630;BME280;36256;42.154;23.002;2023-04-01T00:52:49;96344.91;;;12.30;78.20
36630;BME280;36256;42.154;23.002;2023-04-01T00:55:16;96337.84;;;12.20;76.81
36630;BME280;36256;42.154;23.002;2023-04-01T00:57:45;96344.84;;;12.24;75.19
36630;BME280;36256;42.154;23.002;2023-04-01T01:00:14;96330.50;;;12.22;73.23
36630;BME280;36256;42.154;23.002;2023-04-01T01:02:44;96317.50;;;12.25;74.47
36630;BME280;36256;42.154;23.002;2023-04-01T01:05:15;96315.06;;;12.18;78.38
36630;BME280;36256;42.154;23.002;2023-04-01T01:08:01;96335.31;;;12.22;81.49
36630;BME280;36256;42.154;23.002;2023-04-01T01:10:33;96324.66;;;12.26;80.28
36630;BME280;36256;42.154;23.002;2023-04-01T01:16:01;96326.81;;;12.16;77.49
36630;BME280;36256;42.154;23.002;2023-04-01T01:18:34;96317.03;;;12.12;76.56
36630;BME280;36256;42.154;23.002;2023-04-01T01:21:09;96311.31;;;12.06;77.07
36630;BME280;36256;42.154;23.002;2023-04-01T01:24:22;96313.47;;;11.97;78.30
36630;BME280;36256;42.154;23.002;2023-04-01T01:30:13;96294.56;;;11.68;77.77
36630;BME280;36256;42.154;23.002;2023-04-01T01:35:48;96310.28;;;11.74;80.29
36630;BME280;36256;42.154;23.002;2023-04-01T01:38:18;96304.47;;;11.78;79.53
36630;BME280;36256;42.154;23.002;2023-04-01T01:40:49;96308.66;;;11.82;77.99
36630;BME280;36256;42.154;23.002;2023-04-01T01:43:40;96299.72;;;11.84;78.43
36630;BME280;36256;42.154;23.002;2023-04-01T01:46:19;96301.66;;;11.78;78.54
36630;BME280;36256;42.154;23.002;2023-04-01T01:48:49;96305.84;;;11.82;78.83
36630;BME280;36256;42.154;23.002;2023-04-01T01:51:18;96306.97;;;11.91;76.80
36630;BME280;36256;42.154;23.002;2023-04-01T01:53:45;96291.97;;;11.79;77.49
36630;BME280;36256;42.154;23.002;2023-04-01T01:56:12;96300.88;;;11.77;76.36
36630;BME280;36256;42.154;23.002;2023-04-01T01:58:47;96291.00;;;11.82;75.55
36630;BME280;36256;42.154;23.002;2023-04-01T02:01:17;96293.59;;;11.86;80.77
36630;BME280;36256;42.154;23.002;2023-04-01T02:03:47;96290.50;;;11.83;80.88
36630;BME280;36256;42.154;23.002;2023-04-01T02:06:17;96297.19;;;11.86;79.21
36630;BME280;36256;42.154;23.002;2023-04-01T02:08:51;96301.47;;;11.81;82.19
36630;BME280;36256;42.154;23.002;2023-04-01T02:11:26;96287.91;;;11.80;80.27
36630;BME280;36256;42.154;23.002;2023-04-01T02:14:03;96284.59;;;11.81;77.59
36630;BME280;36256;42.154;23.002;2023-04-01T02:16:37;96271.91;;;11.71;81.35
36630;BME280;36256;42.154;23.002;2023-04-01T02:19:07;96273.38;;;11.67;79.91
36630;BME280;36256;42.154;23.002;2023-04-01T02:21:35;96273.16;;;11.70;79.54
36630;BME280;36256;42.154;23.002;2023-04-01T02:24:06;96275.88;;;11.65;81.20
36630;BME280;36256;42.154;23.002;2023-04-01T02:26:34;96276.81;;;11.62;83.23
36630;BME280;36256;42.154;23.002;2023-04-01T02:29:02;96273.72;;;11.60;82.72
36630;BME280;36256;42.154;23.002;2023-04-01T02:31:31;96276.53;;;11.60;79.97
36630;BME280;36256;42.154;23.002;2023-04-01T02:33:58;96262.91;;;11.53;83.13
36630;BME280;36256;42.154;23.002;2023-04-01T02:36:25;96268.53;;;11.53;82.73
36630;BME280;36256;42.154;23.002;2023-04-01T02:38:52;96269.28;;;11.53;82.60
36630;BME280;36256;42.154;23.002;2023-04-01T02:41:21;96272.56;;;11.52;81.56
36630;BME280;36256;42.154;23.002;2023-04-01T02:43:47;96278.59;;;11.59;80.56
36630;BME280;36256;42.154;23.002;2023-04-01T02:46:14;96270.91;;;11.60;79.66
36630;BME280;36256;42.154;23.002;2023-04-01T02:48:40;96266.56;;;11.59;80.45
36630;BME280;36256;42.154;23.002;2023-04-01T02:51:08;96258.16;;;11.44;89.75
36630;BME280;36256;42.154;23.002;2023-04-01T02:53:34;96273.16;;;11.56;89.14
36630;BME280;36256;42.154;23.002;2023-04-01T02:56:01;96275.28;;;11.61;87.05
36630;BME280;36256;42.154;23.002;2023-04-01T02:58:28;96264.81;;;11.47;83.12
36630;BME280;36256;42.154;23.002;2023-04-01T03:00:54;96257.28;;;11.53;82.21
36630;BME280;36256;42.154;23.002;2023-04-01T03:03:21;96257.38;;;11.58;81.86
36630;BME280;36256;42.154;23.002;2023-04-01T03:05:47;96256.31;;;11.70;81.73
36630;BME280;36256;42.154;23.002;2023-04-01T03:08:14;96264.28;;;11.72;81.96
36630;BME280;36256;42.154;23.002;2023-04-01T03:10:41;96250.91;;;11.67;81.41
36630;BME280;36256;42.154;23.002;2023-04-01T03:13:07;96245.63;;;11.74;80.82
36630;BME280;36256;42.154;23.002;2023-04-01T03:15:34;96244.09;;;11.73;83.23
36630;BME280;36256;42.154;23.002;2023-04-01T03:18:00;96248.38;;;11.69;86.21
36630;BME280;36256;42.154;23.002;2023-04-01T03:20:27;96244.97;;;11.65;85.98
36630;BME280;36256;42.154;23.002;2023-04-01T03:22:54;96240.59;;;11.64;87.84
36630;BME280;36256;42.154;23.002;2023-04-01T03:25:21;96243.53;;;11.55;89.53
36630;BME280;36256;42.154;23.002;2023-04-01T03:27:47;96241.69;;;11.52;89.21
36630;BME280;36256;42.154;23.002;2023-04-01T03:30:14;96234.63;;;11.42;87.08
36630;BME280;36256;42.154;23.002;2023-04-01T03:32:41;96229.38;;;11.20;85.75
36630;BME280;36256;42.154;23.002;2023-04-01T03:35:08;96215.44;;;11.11;86.87
36630;BME280;36256;42.154;23.002;2023-04-01T03:37:36;96208.66;;;11.18;87.79
36630;BME280;36256;42.154;23.002;2023-04-01T03:40:03;96205.28;;;11.14;88.40
36630;BME280;36256;42.154;23.002;2023-04-01T03:42:30;96205.19;;;11.08;90.25
36630;BME280;36256;42.154;23.002;2023-04-01T03:44:58;96211.59;;;11.09;92.29
36630;BME280;36256;42.154;23.002;2023-04-01T03:47:25;96207.88;;;11.02;92.13
36630;BME280;36256;42.154;23.002;2023-04-01T03:49:52;96203.16;;;11.09;88.94
36630;BME280;36256;42.154;23.002;2023-04-01T03:52:18;96195.50;;;11.24;87.78
36630;BME280;36256;42.154;23.002;2023-04-01T03:54:45;96200.44;;;11.29;89.72
36630;BME280;36256;42.154;23.002;2023-04-01T03:57:12;96188.91;;;11.27;86.15
36630;BME280;36256;42.154;23.002;2023-04-01T03:59:38;96177.88;;;11.38;84.94
36630;BME280;36256;42.154;23.002;2023-04-01T04:02:05;96183.06;;;11.45;86.93
36630;BME280;36256;42.154;23.002;2023-04-01T04:04:32;96170.31;;;11.44;87.94
36630;BME280;36256;42.154;23.002;2023-04-01T04:06:58;96178.84;;;11.35;87.19
36630;BME280;36256;42.154;23.002;2023-04-01T04:09:25;96172.66;;;11.31;86.81
36630;BME280;36256;42.154;23.002;2023-04-01T04:11:52;96174.28;;;11.37;86.67
36630;BME280;36256;42.154;23.002;2023-04-01T04:14:19;96161.81;;;11.38;88.01
36630;BME280;36256;42.154;23.002;2023-04-01T04:16:45;96143.97;;;11.27;87.01
36630;BME280;36256;42.154;23.002;2023-04-01T04:19:12;96147.38;;;11.31;87.65
36630;BME280;36256;42.154;23.002;2023-04-01T04:21:40;96146.19;;;11.37;86.18
36630;BME280;36256;42.154;23.002;2023-04-01T04:24:08;96147.66;;;11.33;86.03
36630;BME280;36256;42.154;23.002;2023-04-01T04:26:35;96137.69;;;11.32;86.69
36630;BME280;36256;42.154;23.002;2023-04-01T04:29:02;96136.41;;;11.33;86.16
36630;BME280;36256;42.154;23.002;2023-04-01T04:31:29;96133.31;;;11.31;84.07
36630;BME280;36256;42.154;23.002;2023-04-01T04:33:56;96137.19;;;11.33;82.11
36630;BME280;36256;42.154;23.002;2023-04-01T04:36:22;96137.94;;;11.48;82.36
36630;BME280;36256;42.154;23.002;2023-04-01T04:38:49;96138.88;;;11.60;82.16
36630;BME280;36256;42.154;23.002;2023-04-01T04:41:17;96141.69;;;11.60;83.17
36630;BME280;36256;42.154;23.002;2023-04-01T04:43:55;96126.09;;;11.59;82.83
36630;BME280;36256;42.154;23.002;2023-04-01T04:46:22;96128.03;;;11.67;82.03
36630;BME280;36256;42.154;23.002;2023-04-01T04:48:49;96123.78;;;11.72;81.72
36630;BME280;36256;42.154;23.002;2023-04-01T04:51:17;96119.31;;;11.65;80.35
36630;BME280;36256;42.154;23.002;2023-04-01T04:53:45;96115.66;;;11.59;80.53
36630;BME280;36256;42.154;23.002;2023-04-01T04:56:12;96111.00;;;11.56;80.08
36630;BME280;36256;42.154;23.002;2023-04-01T04:58:39;96105.38;;;11.56;80.32
36630;BME280;36256;42.154;23.002;2023-04-01T05:01:10;96105.16;;;11.60;80.30
36630;BME280;36256;42.154;23.002;2023-04-01T05:03:38;96097.56;;;11.66;80.16
36630;BME280;36256;42.154;23.002;2023-04-01T05:06:07;96099.16;;;11.67;80.51
36630;BME280;36256;42.154;23.002;2023-04-01T05:08:34;96093.34;;;11.56;80.97
36630;BME280;36256;42.154;23.002;2023-04-01T05:11:01;96092.47;;;11.64;81.26
36630;BME280;36256;42.154;23.002;2023-04-01T05:13:28;96090.44;;;11.65;80.81
36630;BME280;36256;42.154;23.002;2023-04-01T05:15:55;96093.56;;;11.67;81.38
36630;BME280;36256;42.154;23.002;2023-04-01T05:18:22;96092.66;;;11.61;80.45
36630;BME280;36256;42.154;23.002;2023-04-01T05:20:50;96085.31;;;11.63;81.11
36630;BME280;36256;42.154;23.002;2023-04-01T05:23:17;96086.06;;;11.64;81.03
36630;BME280;36256;42.154;23.002;2023-04-01T05:25:45;96082.31;;;11.67;80.04
36630;BME280;36256;42.154;23.002;2023-04-01T05:28:11;96086.31;;;11.80;78.18
36630;BME280;36256;42.154;23.002;2023-04-01T05:30:43;96080.47;;;12.04;74.50
36630;BME280;36256;42.154;23.002;2023-04-01T05:33:11;96074.50;;;12.17;76.62
36630;BME280;36256;42.154;23.002;2023-04-01T05:35:39;96072.44;;;12.37;72.69
36630;BME280;36256;42.154;23.002;2023-04-01T05:38:07;96075.63;;;12.76;69.54
36630;BME280;36256;42.154;23.002;2023-04-01T05:40:33;96055.53;;;13.20;66.02
36630;BME280;36256;42.154;23.002;2023-04-01T05:43:00;96035.44;;;13.38;64.83
36630;BME280;36256;42.154;23.002;2023-04-01T05:45:27;96026.59;;;13.62;62.92
36630;BME280;36256;42.154;23.002;2023-04-01T05:47:54;96022.06;;;13.81;62.12
36630;BME280;36256;42.154;23.002;2023-04-01T05:50:20;96026.22;;;13.91;60.98
36630;BME280;36256;42.154;23.002;2023-04-01T05:52:47;96032.69;;;14.13;60.97
36630;BME280;36256;42.154;23.002;2023-04-01T05:55:14;96044.50;;;14.17;64.63
36630;BME280;36256;42.154;23.002;2023-04-01T05:57:40;96039.44;;;14.33;65.11
36630;BME280;36256;42.154;23.002;2023-04-01T06:00:07;96033.34;;;14.62;62.84
36630;BME280;36256;42.154;23.002;2023-04-01T06:02:34;96028.72;;;15.25;60.24
36630;BME280;36256;42.154;23.002;2023-04-01T06:05:17;96024.53;;;15.82;57.00
36630;BME280;36256;42.154;23.002;2023-04-01T06:07:43;96014.59;;;16.16;54.48
36630;BME280;36256;42.154;23.002;2023-04-01T06:10:18;95995.69;;;15.94;54.47
36630;BME280;36256;42.154;23.002;2023-04-01T06:20:55;95995.84;;;15.44;55.26
36630;BME280;36256;42.154;23.002;2023-04-01T06:23:49;95989.16;;;15.36;56.18
36630;BME280;36256;42.154;23.002;2023-04-01T06:26:35;95975.78;;;15.31;56.13
36630;BME280;36256;42.154;23.002;2023-04-01T06:29:43;95970.16;;;15.31;55.68
36630;BME280;36256;42.154;23.002;2023-04-01T06:32:15;95959.38;;;15.30;55.50
36630;BME280;36256;42.154;23.002;2023-04-01T06:40:35;95963.47;;;15.45;55.35
36630;BME280;36256;42.154;23.002;2023-04-01T06:43:36;95955.78;;;15.46;55.18
36630;BME280;36256;42.154;23.002;2023-04-01T06:49:05;95972.22;;;15.25;55.85
36630;BME280;36256;42.154;23.002;2023-04-01T06:51:48;95984.78;;;15.30;55.89
36630;BME280;36256;42.154;23.002;2023-04-01T06:54:24;95976.34;;;15.24;56.29
36630;BME280;36256;42.154;23.002;2023-04-01T06:56:59;95978.16;;;15.16;56.73
36630;BME280;36256;42.154;23.002;2023-04-01T06:59:32;95978.41;;;15.13;56.66
36630;BME280;36256;42.154;23.002;2023-04-01T07:02:06;95955.81;;;15.07;56.89
36630;BME280;36256;42.154;23.002;2023-04-01T07:04:43;95953.25;;;15.09;56.78
36630;BME280;36256;42.154;23.002;2023-04-01T07:09:57;95955.56;;;15.16;56.98
36630;BME280;36256;42.154;23.002;2023-04-01T07:14:57;95972.75;;;15.18;56.42
36630;BME280;36256;42.154;23.002;2023-04-01T07:17:31;95963.25;;;15.16;56.40
36630;BME280;36256;42.154;23.002;2023-04-01T07:22:50;95951.94;;;15.27;56.29
36630;BME280;36256;42.154;23.002;2023-04-01T07:25:26;95962.69;;;15.34;55.06
36630;BME280;36256;42.154;23.002;2023-04-01T07:28:05;95947.78;;;15.33;54.83
36630;BME280;36256;42.154;23.002;2023-04-01T07:30:44;95934.69;;;15.41;54.97
36630;BME280;36256;42.154;23.002;2023-04-01T07:33:44;95938.53;;;15.44;54.51
36630;BME280;36256;42.154;23.002;2023-04-01T07:36:13;95951.13;;;15.48;54.76
36630;BME280;36256;42.154;23.002;2023-04-01T07:44:05;95938.78;;;15.51;54.17
36630;BME280;36256;42.154;23.002;2023-04-01T07:46:44;95924.34;;;15.60;54.31
36630;BME280;36256;42.154;23.002;2023-04-01T07:49:17;95904.03;;;15.62;54.48
36630;BME280;36256;42.154;23.002;2023-04-01T07:54:39;95900.34;;;15.78;54.52
36630;BME280;36256;42.154;23.002;2023-04-01T07:57:13;95900.59;;;15.80;54.69
36630;BME280;36256;42.154;23.002;2023-04-01T08:05:33;95895.72;;;15.81;55.41
36630;BME280;36256;42.154;23.002;2023-04-01T08:11:21;95896.72;;;15.83;55.02
36630;BME280;36256;42.154;23.002;2023-04-01T08:17:05;95889.50;;;15.88;54.99
36630;BME280;36256;42.154;23.002;2023-04-01T08:22:53;95879.78;;;15.78;54.60
36630;BME280;36256;42.154;23.002;2023-04-01T08:25:28;95878.06;;;15.69;55.38
36630;BME280;36256;42.154;23.002;2023-04-01T08:28:03;95876.53;;;15.62;55.74
36630;BME280;36256;42.154;23.002;2023-04-01T08:30:43;95868.06;;;15.62;56.04
36630;BME280;36256;42.154;23.002;2023-04-01T08:33:21;95872.94;;;15.56;56.28
36630;BME280;36256;42.154;23.002;2023-04-01T08:36:03;95871.69;;;15.57;56.15
36630;BME280;36256;42.154;23.002;2023-04-01T08:38:38;95871.63;;;15.63;56.61
36630;BME280;36256;42.154;23.002;2023-04-01T08:49:21;95834.97;;;15.46;58.07
36630;BME280;36256;42.154;23.002;2023-04-01T08:57:44;95837.63;;;15.80;56.56
36630;BME280;36256;42.154;23.002;2023-04-01T09:00:30;95833.25;;;15.79;57.43
36630;BME280;36256;42.154;23.002;2023-04-01T09:06:32;95826.25;;;17.04;55.91
36630;BME280;36256;42.154;23.002;2023-04-01T09:17:23;95788.19;;;18.11;49.81
36630;BME280;36256;42.154;23.002;2023-04-01T09:20:30;95784.75;;;18.50;49.72
36630;BME280;36256;42.154;23.002;2023-04-01T09:29:02;95761.94;;;18.68;48.57
36630;BME280;36256;42.154;23.002;2023-04-01T09:37:15;95746.19;;;18.94;47.76
36630;BME280;36256;42.154;23.002;2023-04-01T09:44:58;95750.69;;;17.99;48.76
36630;BME280;36256;42.154;23.002;2023-04-01T09:50:29;95745.22;;;18.33;50.24
36630;BME280;36256;42.154;23.002;2023-04-01T10:18:44;95711.56;;;18.11;48.75
36630;BME280;36256;42.154;23.002;2023-04-01T10:21:22;95695.59;;;18.08;48.46
36630;BME280;36256;42.154;23.002;2023-04-01T11:09:19;95640.72;;;17.61;50.42
36630;BME280;36256;42.154;23.002;2023-04-01T11:28:43;95625.38;;;17.00;51.54
36630;BME280;36256;42.154;23.002;2023-04-01T11:33:46;95656.53;;;17.00;51.76
36630;BME280;36256;42.154;23.002;2023-04-01T11:44:29;95729.75;;;16.96;55.84
36630;BME280;36256;42.154;23.002;2023-04-01T11:47:19;95758.75;;;17.02;58.11
36630;BME280;36256;42.154;23.002;2023-04-01T11:58:26;95819.72;;;16.66;67.30
36630;BME280;36256;42.154;23.002;2023-04-01T12:01:17;95838.13;;;16.48;70.14
36630;BME280;36256;42.154;23.002;2023-04-01T12:03:50;95861.78;;;16.16;74.92
36630;BME280;36256;42.154;23.002;2023-04-01T12:17:34;95894.19;;;15.80;88.71
36630;BME280;36256;42.154;23.002;2023-04-01T12:22:58;95872.53;;;15.88;97.40
36630;BME280;36256;42.154;23.002;2023-04-01T12:31:42;95864.78;;;15.94;100.00
36630;BME280;36256;42.154;23.002;2023-04-01T12:37:29;95871.22;;;15.48;97.25
36630;BME280;36256;42.154;23.002;2023-04-01T13:11:40;95849.03;;;16.04;100.00
36630;BME280;36256;42.154;23.002;2023-04-01T13:17:20;95850.00;;;16.12;100.00
36630;BME280;36256;42.154;23.002;2023-04-01T13:20:03;95841.38;;;16.28;96.79
36630;BME280;36256;42.154;23.002;2023-04-01T13:25:16;95836.38;;;16.10;92.48
36630;BME280;36256;42.154;23.002;2023-04-01T13:27:53;95827.13;;;16.10;91.50
36630;BME280;36256;42.154;23.002;2023-04-01T13:30:30;95815.94;;;16.23;90.38
36630;BME280;36256;42.154;23.002;2023-04-01T13:33:02;95819.50;;;16.29;89.02
36630;BME280;36256;42.154;23.002;2023-04-01T13:43:52;95841.25;;;16.10;94.09
36630;BME280;36256;42.154;23.002;2023-04-01T13:49:36;95806.78;;;15.76;100.00
36630;BME280;36256;42.154;23.002;2023-04-01T14:31:00;95850.91;;;14.59;100.00
36630;BME280;36256;42.154;23.002;2023-04-01T14:42:11;95790.56;;;14.73;100.00
36630;BME280;36256;42.154;23.002;2023-04-01T14:47:54;95823.44;;;14.65;100.00
36630;BME280;36256;42.154;23.002;2023-04-01T14:50:27;95836.47;;;14.79;98.80
36630;BME280;36256;42.154;23.002;2023-04-01T14:55:54;95835.59;;;15.17;98.30
36630;BME280;36256;42.154;23.002;2023-04-01T14:58:24;95832.47;;;15.26;96.24
36630;BME280;36256;42.154;23.002;2023-04-01T15:03:32;95839.69;;;15.22;93.09
36630;BME280;36256;42.154;23.002;2023-04-01T15:14:34;95833.53;;;15.12;95.88
36630;BME280;36256;42.154;23.002;2023-04-01T15:20:28;95847.13;;;15.25;95.13
36630;BME280;36256;42.154;23.002;2023-04-01T15:30:37;95863.69;;;14.93;100.00
36630;BME280;36256;42.154;23.002;2023-04-01T15:38:37;95871.91;;;14.80;100.00
36630;BME280;36256;42.154;23.002;2023-04-01T15:43:46;95872.19;;;14.60;100.00
36630;BME280;36256;42.154;23.002;2023-04-01T15:46:47;95885.81;;;14.39;100.00
36630;BME280;36256;42.154;23.002;2023-04-01T15:49:41;95877.59;;;14.19;100.00
36630;BME280;36256;42.154;23.002;2023-04-01T16:00:53;95873.97;;;14.18;100.00
36630;BME280;36256;42.154;23.002;2023-04-01T16:03:45;95879.34;;;14.28;100.00
36630;BME280;36256;42.154;23.002;2023-04-01T16:12:19;95887.84;;;14.50;99.42
36630;BME280;36256;42.154;23.002;2023-04-01T16:24:24;95915.06;;;14.47;100.00
36630;BME280;36256;42.154;23.002;2023-04-01T16:27:04;95910.94;;;14.43;100.00
36630;BME280;36256;42.154;23.002;2023-04-01T16:29:45;95919.16;;;14.41;100.00
36630;BME280;36256;42.154;23.002;2023-04-01T16:37:53;95953.44;;;14.00;100.00
36630;BME280;36256;42.154;23.002;2023-04-01T16:45:43;95936.19;;;13.76;100.00
36630;BME280;36256;42.154;23.002;2023-04-01T16:48:17;95944.34;;;13.63;100.00
36630;BME280;36256;42.154;23.002;2023-04-01T16:51:00;95945.94;;;13.75;100.00
36630;BME280;36256;42.154;23.002;2023-04-01T16:53:37;95951.34;;;13.84;100.00
36630;BME280;36256;42.154;23.002;2023-04-01T16:59:07;95969.78;;;13.74;100.00
36630;BME280;36256;42.154;23.002;2023-04-01T17:01:44;95970.50;;;13.69;100.00
36630;BME280;36256;42.154;23.002;2023-04-01T17:04:23;95983.06;;;13.68;100.00
36630;BME280;36256;42.154;23.002;2023-04-01T17:12:53;96029.63;;;13.58;100.00
36630;BME280;36256;42.154;23.002;2023-04-01T17:15:43;96044.22;;;13.51;100.00
36630;BME280;36256;42.154;23.002;2023-04-01T17:21:13;96034.72;;;13.49;100.00
36630;BME280;36256;42.154;23.002;2023-04-01T17:23:58;96040.88;;;13.53;100.00
36630;BME280;36256;42.154;23.002;2023-04-01T17:35:27;96134.31;;;13.09;100.00
36630;BME280;36256;42.154;23.002;2023-04-01T17:38:02;96120.44;;;12.80;98.26
36630;BME280;36256;42.154;23.002;2023-04-01T17:41:05;96126.06;;;12.54;95.30
36630;BME280;36256;42.154;23.002;2023-04-01T17:49:04;96141.63;;;12.09;94.38
36630;BME280;36256;42.154;23.002;2023-04-01T17:51:43;96143.03;;;11.99;92.61
36630;BME280;36256;42.154;23.002;2023-04-01T17:57:50;96174.94;;;11.96;94.15
36630;BME280;36256;42.154;23.002;2023-04-01T18:06:18;96185.38;;;11.75;94.88
36630;BME280;36256;42.154;23.002;2023-04-01T18:09:08;96207.06;;;11.75;95.69
36630;BME280;36256;42.154;23.002;2023-04-01T18:20:06;96203.34;;;11.98;94.75
36630;BME280;36256;42.154;23.002;2023-04-01T18:22:45;96210.50;;;11.99;97.13
36630;BME280;36256;42.154;23.002;2023-04-01T18:27:43;96204.63;;;12.17;98.16
36630;BME280;36256;42.154;23.002;2023-04-01T18:30:27;96203.91;;;12.02;96.59
36630;BME280;36256;42.154;23.002;2023-04-01T18:33:03;96210.56;;;11.85;95.24
36630;BME280;36256;42.154;23.002;2023-04-01T18:38:31;96219.47;;;11.83;96.15
36630;BME280;36256;42.154;23.002;2023-04-01T18:41:10;96230.69;;;11.83;100.00
36630;BME280;36256;42.154;23.002;2023-04-01T19:00:46;96230.53;;;11.43;100.00
36630;BME280;36256;42.154;23.002;2023-04-01T19:03:48;96236.84;;;11.38;100.00
36630;BME280;36256;42.154;23.002;2023-04-01T19:06:28;96237.13;;;11.40;100.00
36630;BME280;36256;42.154;23.002;2023-04-01T19:09:11;96236.94;;;11.29;99.51
36630;BME280;36256;42.154;23.002;2023-04-01T19:11:53;96234.03;;;11.38;100.00
36630;BME280;36256;42.154;23.002;2023-04-01T19:14:52;96225.50;;;11.47;100.00
36630;BME280;36256;42.154;23.002;2023-04-01T19:20:18;96240.03;;;11.45;96.89
36630;BME280;36256;42.154;23.002;2023-04-01T19:25:40;96247.59;;;11.39;100.00
36630;BME280;36256;42.154;23.002;2023-04-01T19:31:01;96248.09;;;11.38;100.00
36630;BME280;36256;42.154;23.002;2023-04-01T19:36:29;96255.16;;;11.19;100.00
36630;BME280;36256;42.154;23.002;2023-04-01T19:46:59;96277.16;;;10.96;100.00
36630;BME280;36256;42.154;23.002;2023-04-01T19:52:18;96295.00;;;10.93;100.00
36630;BME280;36256;42.154;23.002;2023-04-01T19:54:59;96297.66;;;10.88;100.00
36630;BME280;36256;42.154;23.002;2023-04-01T20:00:31;96310.03;;;10.81;100.00
36630;BME280;36256;42.154;23.002;2023-04-01T20:08:36;96310.59;;;10.71;100.00
36630;BME280;36256;42.154;23.002;2023-04-01T20:11:18;96322.53;;;10.57;100.00
36630;BME280;36256;42.154;23.002;2023-04-01T20:14:01;96313.41;;;10.47;100.00
36630;BME280;36256;42.154;23.002;2023-04-01T20:19:33;96327.53;;;10.29;100.00
36630;BME280;36256;42.154;23.002;2023-04-01T20:22:04;96322.00;;;10.20;100.00
36630;BME280;36256;42.154;23.002;2023-04-01T20:24:43;96320.91;;;10.08;100.00
36630;BME280;36256;42.154;23.002;2023-04-01T20:35:12;96336.84;;;9.93;100.00
36630;BME280;36256;42.154;23.002;2023-04-01T20:38:14;96347.63;;;9.86;100.00
36630;BME280;36256;42.154;23.002;2023-04-01T20:41:26;96351.06;;;9.81;100.00
36630;BME280;36256;42.154;23.002;2023-04-01T20:54:46;96339.94;;;9.44;100.00
36630;BME280;36256;42.154;23.002;2023-04-01T20:57:21;96340.91;;;9.41;100.00
36630;BME280;36256;42.154;23.002;2023-04-01T21:08:14;96346.84;;;9.16;100.00
36630;BME280;36256;42.154;23.002;2023-04-01T21:10:56;96351.34;;;9.05;100.00
36630;BME280;36256;42.154;23.002;2023-04-01T21:19:04;96359.91;;;9.01;100.00
36630;BME280;36256;42.154;23.002;2023-04-01T21:38:13;96348.81;;;8.52;100.00
36630;BME280;36256;42.154;23.002;2023-04-01T21:50:18;96342.47;;;8.12;100.00
36630;BME280;36256;42.154;23.002;2023-04-01T22:07:04;96341.16;;;8.26;100.00
36630;BME280;36256;42.154;23.002;2023-04-01T22:09:36;96334.25;;;8.18;100.00
36630;BME280;36256;42.154;23.002;2023-04-01T22:12:09;96338.75;;;8.06;100.00
36630;BME280;36256;42.154;23.002;2023-04-01T22:17:52;96348.84;;;8.13;100.00
36630;BME280;36256;42.154;23.002;2023-04-01T22:20:38;96350.72;;;8.16;100.00
36630;BME280;36256;42.154;23.002;2023-04-01T22:23:26;96354.91;;;8.20;100.00
36630;BME280;36256;42.154;23.002;2023-04-01T22:28:37;96370.06;;;8.32;100.00
36630;BME280;36256;42.154;23.002;2023-04-01T22:31:06;96365.69;;;8.31;100.00
36630;BME280;36256;42.154;23.002;2023-04-01T22:34:05;96368.56;;;8.18;100.00
36630;BME280;36256;42.154;23.002;2023-04-01T22:36:43;96370.47;;;7.90;100.00
36630;BME280;36256;42.154;23.002;2023-04-01T22:42:20;96378.09;;;7.59;100.00
36630;BME280;36256;42.154;23.002;2023-04-01T22:47:38;96384.56;;;7.56;100.00
36630;BME280;36256;42.154;23.002;2023-04-01T22:50:10;96397.06;;;7.64;100.00
36630;BME280;36256;42.154;23.002;2023-04-01T22:52:42;96396.44;;;7.69;100.00
36630;BME280;36256;42.154;23.002;2023-04-01T22:55:22;96407.03;;;7.74;100.00
36630;BME280;36256;42.154;23.002;2023-04-01T22:58:09;96418.84;;;7.78;100.00
36630;BME280;36256;42.154;23.002;2023-04-01T23:00:43;96422.59;;;7.84;100.00
36630;BME280;36256;42.154;23.002;2023-04-01T23:03:16;96416.09;;;7.87;100.00
36630;BME280;36256;42.154;23.002;2023-04-01T23:06:03;96414.28;;;7.93;100.00
36630;BME280;36256;42.154;23.002;2023-04-01T23:11:44;96412.13;;;7.98;100.00